CheckWX is a tool to help pilots better visualize weather data.  It is not intended as a substitute for an official pre-flight weather briefing.

03:13:30 UTC

KSBS METAR
Steamboat Springs / Bob Adams Field Airport
Steamboat Springs, Colorado, USA
Current

19 mins ago

KSBS 260255Z AUTO 00000KT 10SM CLR 14/M05 A3001 RMK AO1 T01441048
Observed
May-26 @ 02:55 UTC
Visibility
10 SM
Flight Rules
VFR
Cloud Levels
  • Clear skies
Temperature
14°C / 57°F
Dewpoint
-5°C / 23°F
Humidity
27%
Altimeter
30.01" Hg
Pressure
1016.22 hPa
Previous

39 mins ago

KSBS 260235Z AUTO 00000KT 10SM CLR 14/M03 A3001 RMK AO1 T01411030
Observed
May-26 @ 02:35 UTC
Visibility
10 SM
Flight Rules
VFR
Cloud Levels
  • Clear skies
Temperature
14°C / 57°F
Dewpoint
-3°C / 27°F
Humidity
31%
Altimeter
30.01" Hg
Pressure
1016.22 hPa
Previous

59 mins ago

KSBS 260215Z AUTO 00000KT 10SM CLR 15/M03 A3000 RMK AO1 T01461034
Observed
May-26 @ 02:15 UTC
Visibility
10 SM
Flight Rules
VFR
Cloud Levels
  • Clear skies
Temperature
15°C / 59°F
Dewpoint
-3°C / 27°F
Humidity
29%
Altimeter
30" Hg
Pressure
1015.92 hPa